createdAt,value
2019-01-29T00:01:33.198Z,4.70
2019-01-29T00:04:00.768Z,5.40
2019-01-29T00:06:28.386Z,4.40
2019-01-29T00:08:55.930Z,3.90
2019-01-29T00:11:23.418Z,4.63
2019-01-29T00:13:50.911Z,4.30
2019-01-29T00:16:18.787Z,4.90
2019-01-29T00:18:46.410Z,4.60
2019-01-29T00:21:14.050Z,5.77
2019-01-29T00:23:41.741Z,3.57
2019-01-29T00:26:09.459Z,4.77
2019-01-29T00:28:37.032Z,3.50
2019-01-29T00:31:04.601Z,3.90
2019-01-29T00:33:32.078Z,3.30
2019-01-29T00:35:59.628Z,3.00
2019-01-29T00:38:27.435Z,2.87
2019-01-29T00:40:54.867Z,3.10
2019-01-29T00:43:22.368Z,3.50
2019-01-29T00:45:50.329Z,3.10
2019-01-29T00:48:17.862Z,3.20
2019-01-29T00:50:45.375Z,3.07
2019-01-29T00:53:14.014Z,2.90
2019-01-29T00:55:41.675Z,3.30
2019-01-29T00:58:09.230Z,2.90
2019-01-29T01:00:36.875Z,3.30
2019-01-29T01:03:04.718Z,2.37
2019-01-29T01:05:32.367Z,2.67
2019-01-29T01:07:59.981Z,2.70
2019-01-29T01:10:27.494Z,2.10
2019-01-29T01:12:55.092Z,2.10
2019-01-29T01:15:23.261Z,1.67
2019-01-29T01:17:50.799Z,1.93
2019-01-29T01:20:18.372Z,1.87
2019-01-29T01:22:51.271Z,1.70
2019-01-29T01:25:16.182Z,1.37
2019-01-29T01:27:43.695Z,1.07
2019-01-29T01:30:14.207Z,1.50
2019-01-29T01:32:41.738Z,1.30
2019-01-29T01:35:09.592Z,1.37
2019-01-29T01:37:37.076Z,1.20
2019-01-29T01:40:07.842Z,1.13
2019-01-29T01:42:35.367Z,1.50
2019-01-29T01:45:04.578Z,1.30
2019-01-29T01:47:32.212Z,1.30
2019-01-29T01:50:00.287Z,1.20
2019-01-29T01:52:27.800Z,2.03
2019-01-29T01:54:55.239Z,1.90
2019-01-29T01:57:22.722Z,2.27
2019-01-29T01:59:50.281Z,2.00
2019-01-29T02:02:17.663Z,2.60
2019-01-29T02:04:45.307Z,2.77
2019-01-29T02:07:12.919Z,3.43
2019-01-29T02:09:40.608Z,4.40
2019-01-29T02:12:10.498Z,4.20
2019-01-29T02:14:38.054Z,4.40
2019-01-29T02:17:05.673Z,4.37
2019-01-29T02:19:33.247Z,4.60
2019-01-29T02:22:00.858Z,5.67
2019-01-29T02:24:28.334Z,5.37
2019-01-29T02:26:55.834Z,5.80
2019-01-29T02:29:23.441Z,5.20
2019-01-29T02:31:51.003Z,5.60
2019-01-29T02:34:18.526Z,5.00
2019-01-29T02:36:45.946Z,4.10
2019-01-29T02:39:13.464Z,4.47
2019-01-29T02:41:41.035Z,4.57
2019-01-29T02:44:08.652Z,4.60
2019-01-29T02:46:36.569Z,4.40
2019-01-29T02:49:04.171Z,4.43
2019-01-29T02:51:31.670Z,5.50
2019-01-29T02:53:59.434Z,5.93
2019-01-29T02:56:26.875Z,4.60
2019-01-29T02:58:54.359Z,4.20
2019-01-29T03:04:34.293Z,5.20
2019-01-29T03:07:01.810Z,4.93
2019-01-29T03:09:29.454Z,4.17
2019-01-29T03:11:57.093Z,4.73
2019-01-29T03:14:24.740Z,4.47
2019-01-29T03:16:52.262Z,4.83
2019-01-29T03:19:19.887Z,3.93
2019-01-29T03:21:47.581Z,4.27
2019-01-29T03:24:15.136Z,3.70
2019-01-29T03:26:42.894Z,3.63
2019-01-29T03:29:10.275Z,3.50
2019-01-29T03:31:38.087Z,3.60
2019-01-29T03:34:05.697Z,3.87
2019-01-29T03:36:33.288Z,4.63
2019-01-29T03:39:00.878Z,3.43
2019-01-29T03:41:28.455Z,3.63
2019-01-29T03:43:55.978Z,3.50
2019-01-29T03:46:23.442Z,3.10
2019-01-29T03:48:51.033Z,2.90
2019-01-29T03:51:18.697Z,3.00
2019-01-29T03:53:46.318Z,2.60
2019-01-29T03:56:13.820Z,2.97
2019-01-29T03:58:41.346Z,3.53
2019-01-29T04:01:08.746Z,3.43
2019-01-29T04:03:36.328Z,2.87
2019-01-29T04:06:04.025Z,3.00
2019-01-29T04:08:31.589Z,2.77
2019-01-29T04:10:59.055Z,2.70
2019-01-29T04:13:26.735Z,3.13
2019-01-29T04:15:54.338Z,2.87
2019-01-29T04:18:21.996Z,2.53
2019-01-29T04:20:49.494Z,2.70
2019-01-29T04:23:17.067Z,3.17
2019-01-29T04:25:44.922Z,2.97
2019-01-29T04:28:12.638Z,3.17
2019-01-29T04:30:40.275Z,2.77
2019-01-29T04:33:07.788Z,2.40
2019-01-29T04:35:35.344Z,2.50
2019-01-29T04:38:03.145Z,2.87
2019-01-29T04:40:30.727Z,3.07
2019-01-29T04:42:58.299Z,2.53
2019-01-29T04:45:25.865Z,3.50
2019-01-29T04:47:53.605Z,5.50
2019-01-29T04:50:26.556Z,3.50
2019-01-29T04:52:54.304Z,3.00
2019-01-29T04:55:21.898Z,3.23
2019-01-29T04:57:49.480Z,3.87
2019-01-29T05:00:22.727Z,3.27
2019-01-29T05:02:50.303Z,2.90
2019-01-29T05:05:18.851Z,3.30
2019-01-29T05:07:46.383Z,3.17
2019-01-29T05:10:14.694Z,3.30
2019-01-29T05:12:42.274Z,3.23
2019-01-29T05:15:11.509Z,2.90
2019-01-29T05:17:38.995Z,3.57
2019-01-29T05:20:09.431Z,3.37
2019-01-29T05:22:36.985Z,3.33
2019-01-29T05:25:05.193Z,3.93
2019-01-29T05:27:32.810Z,4.53
2019-01-29T05:30:00.302Z,3.87
2019-01-29T05:32:27.716Z,3.40
2019-01-29T05:34:55.298Z,5.20
2019-01-29T05:37:22.785Z,5.50
2019-01-29T05:39:50.201Z,4.23
2019-01-29T05:42:17.763Z,4.37
2019-01-29T05:44:45.291Z,4.20
2019-01-29T05:47:16.005Z,3.50
2019-01-29T05:49:43.620Z,3.40
2019-01-29T05:52:11.491Z,3.10
2019-01-29T05:54:39.122Z,4.00
2019-01-29T05:57:06.842Z,4.30
2019-01-29T05:59:38.523Z,3.87
2019-01-29T06:02:07.918Z,3.20
2019-01-29T06:04:35.761Z,3.97
2019-01-29T06:07:03.532Z,4.00
2019-01-29T06:09:31.321Z,3.37
2019-01-29T06:11:59.215Z,3.73
2019-01-29T06:14:27.047Z,3.50
2019-01-29T06:16:54.765Z,3.10
2019-01-29T06:19:23.676Z,3.30
2019-01-29T06:21:51.932Z,3.07
2019-01-29T06:24:25.458Z,3.47
2019-01-29T06:26:50.173Z,3.07
2019-01-29T06:29:18.004Z,3.93
2019-01-29T06:31:45.713Z,3.47
2019-01-29T06:34:13.644Z,3.77
2019-01-29T06:36:41.526Z,4.20
2019-01-29T06:39:09.638Z,5.23
2019-01-29T06:41:37.622Z,3.60
2019-01-29T06:44:06.569Z,3.97
2019-01-29T06:46:39.371Z,4.17
2019-01-29T06:49:11.151Z,3.53
2019-01-29T06:51:38.672Z,4.00
2019-01-29T06:54:06.283Z,4.17
2019-01-29T06:56:33.970Z,3.40
2019-01-29T06:59:01.759Z,4.23
2019-01-29T07:01:29.363Z,4.30
2019-01-29T07:03:56.968Z,5.30
2019-01-29T07:06:24.583Z,3.70
2019-01-29T07:08:52.229Z,3.70
2019-01-29T07:11:19.893Z,3.97
2019-01-29T07:13:47.614Z,3.90
2019-01-29T07:16:23.843Z,3.90
2019-01-29T07:19:01.588Z,4.07
2019-01-29T07:21:29.505Z,4.37
2019-01-29T07:23:57.132Z,3.97
2019-01-29T07:26:25.196Z,4.13
2019-01-29T07:28:52.823Z,4.73
2019-01-29T07:31:20.466Z,5.20
2019-01-29T07:33:48.070Z,4.17
2019-01-29T07:36:15.726Z,3.60
2019-01-29T07:38:43.343Z,4.90
2019-01-29T07:41:10.961Z,4.90
2019-01-29T07:43:38.430Z,4.27
2019-01-29T07:46:08.863Z,4.80
2019-01-29T07:48:36.680Z,3.80
2019-01-29T07:51:06.590Z,4.93
2019-01-29T07:53:34.186Z,5.20
2019-01-29T07:56:01.818Z,4.30
2019-01-29T07:58:29.404Z,4.50
2019-01-29T08:00:56.931Z,4.50
2019-01-29T08:03:24.498Z,5.70
2019-01-29T08:05:52.159Z,6.50
2019-01-29T08:08:19.802Z,5.33
2019-01-29T08:10:47.801Z,5.33
2019-01-29T08:13:15.703Z,4.37
2019-01-29T08:15:44.473Z,5.00
2019-01-29T08:18:14.906Z,4.83
2019-01-29T08:20:42.873Z,4.80
2019-01-29T08:23:11.094Z,5.13
2019-01-29T08:25:47.394Z,6.03
2019-01-29T08:28:13.651Z,5.03
2019-01-29T08:30:41.625Z,5.50
2019-01-29T08:33:09.519Z,4.80
2019-01-29T08:35:37.383Z,5.43
2019-01-29T08:38:05.150Z,5.60
2019-01-29T08:40:32.888Z,5.10
2019-01-29T08:43:00.526Z,4.60
2019-01-29T08:45:28.078Z,4.70
2019-01-29T08:47:55.673Z,5.80
2019-01-29T08:50:23.426Z,6.37
2019-01-29T08:52:50.898Z,5.40
2019-01-29T08:55:18.679Z,5.60
2019-01-29T08:57:46.238Z,6.00
2019-01-29T09:00:14.771Z,5.03
2019-01-29T09:02:42.535Z,5.50
2019-01-29T09:05:10.295Z,5.20
2019-01-29T09:07:37.784Z,5.20
2019-01-29T09:10:06.779Z,5.80
2019-01-29T09:12:34.474Z,4.43
2019-01-29T09:15:02.005Z,5.40
2019-01-29T09:17:29.697Z,6.10
2019-01-29T09:19:57.416Z,5.73
2019-01-29T09:22:24.766Z,5.83
2019-01-29T09:24:52.219Z,5.60
2019-01-29T09:27:19.657Z,5.67
2019-01-29T09:29:47.019Z,6.07
2019-01-29T09:32:14.567Z,4.37
2019-01-29T09:34:42.044Z,4.83
2019-01-29T09:37:09.514Z,4.70
2019-01-29T09:39:39.086Z,4.40
2019-01-29T09:42:06.636Z,5.57
2019-01-29T09:44:34.142Z,6.77
2019-01-29T09:47:01.903Z,6.20
2019-01-29T09:49:29.406Z,5.53
2019-01-29T09:51:56.827Z,5.07
2019-01-29T09:54:24.283Z,5.87
2019-01-29T09:56:51.995Z,6.70
2019-01-29T09:59:19.613Z,5.83
2019-01-29T10:01:47.288Z,5.40
2019-01-29T10:04:14.999Z,6.17
2019-01-29T10:06:42.454Z,6.00
2019-01-29T10:09:10.007Z,6.80
2019-01-29T10:11:37.482Z,7.20
2019-01-29T10:14:05.834Z,5.70
2019-01-29T10:16:33.467Z,6.33
2019-01-29T10:19:01.264Z,6.27
2019-01-29T10:21:28.873Z,6.57
2019-01-29T10:23:56.532Z,5.87
2019-01-29T10:26:24.320Z,6.73
2019-01-29T10:28:52.111Z,7.30
2019-01-29T10:31:24.308Z,6.20
2019-01-29T10:33:51.962Z,7.10
2019-01-29T10:36:19.518Z,6.40
2019-01-29T10:38:47.117Z,6.77
2019-01-29T10:41:14.574Z,7.27
2019-01-29T10:43:42.614Z,8.10
2019-01-29T10:46:10.060Z,8.93
2019-01-29T10:48:37.939Z,8.57
2019-01-29T10:51:05.575Z,8.40
2019-01-29T10:53:33.230Z,8.50
2019-01-29T10:56:00.866Z,8.27
2019-01-29T10:58:28.382Z,9.10
2019-01-29T11:00:55.923Z,9.03
2019-01-29T11:03:23.515Z,9.00
2019-01-29T11:05:51.181Z,9.53
2019-01-29T11:08:18.777Z,9.30
2019-01-29T11:10:47.327Z,9.70
2019-01-29T11:13:14.914Z,11.20
2019-01-29T11:15:45.415Z,9.83
2019-01-29T11:18:14.392Z,11.20
2019-01-29T11:20:41.977Z,11.30
2019-01-29T11:23:09.507Z,10.90
2019-01-29T11:25:37.216Z,9.33
2019-01-29T11:28:05.265Z,11.70
2019-01-29T11:30:33.998Z,11.77
2019-01-29T11:33:01.636Z,10.20
2019-01-29T11:35:29.235Z,9.00
2019-01-29T11:37:56.889Z,10.00
2019-01-29T11:40:27.500Z,10.50
2019-01-29T11:42:55.082Z,10.00
2019-01-29T11:45:25.733Z,10.90
2019-01-29T11:47:53.226Z,10.40
2019-01-29T11:50:20.659Z,9.17
2019-01-29T11:52:48.167Z,11.90
2019-01-29T11:55:15.621Z,10.10
2019-01-29T11:57:43.929Z,10.10
2019-01-29T12:00:16.128Z,9.83
2019-01-29T12:02:43.583Z,10.70
2019-01-29T12:05:11.936Z,10.60
2019-01-29T12:07:39.558Z,9.70
2019-01-29T12:10:07.861Z,9.90
2019-01-29T12:12:35.807Z,9.47
2019-01-29T12:15:05.397Z,10.00
2019-01-29T12:17:33.018Z,10.80
2019-01-29T12:20:00.530Z,10.00
2019-01-29T12:22:28.452Z,9.37
2019-01-29T12:24:57.188Z,11.47
2019-01-29T12:27:25.810Z,12.30
2019-01-29T12:29:54.106Z,11.80
2019-01-29T12:32:22.070Z,12.00
2019-01-29T12:34:49.866Z,12.07
2019-01-29T12:37:17.448Z,11.80
2019-01-29T12:39:44.960Z,12.13
2019-01-29T12:42:12.615Z,12.27
2019-01-29T12:44:40.263Z,12.80
2019-01-29T12:47:07.909Z,12.93
2019-01-29T12:49:35.913Z,12.50
2019-01-29T12:52:29.006Z,13.37
2019-01-29T12:54:56.486Z,13.53
2019-01-29T12:57:24.168Z,12.87
2019-01-29T12:59:51.772Z,12.80
2019-01-29T13:02:19.474Z,12.13
2019-01-29T13:04:47.059Z,12.97
2019-01-29T13:07:14.551Z,12.10
2019-01-29T13:09:42.747Z,13.27
2019-01-29T13:12:10.391Z,12.63
2019-01-29T13:14:37.926Z,11.30
2019-01-29T13:17:05.450Z,11.90
2019-01-29T13:19:32.920Z,11.13
2019-01-29T13:22:00.766Z,11.50
2019-01-29T13:24:28.330Z,11.37
2019-01-29T13:26:55.814Z,11.50
2019-01-29T13:29:23.456Z,10.00
2019-01-29T13:31:51.022Z,10.17
2019-01-29T13:34:18.627Z,10.43
2019-01-29T13:36:46.163Z,9.47
2019-01-29T13:39:16.725Z,11.30
2019-01-29T13:41:47.241Z,10.97
2019-01-29T13:44:14.874Z,10.73
2019-01-29T13:46:43.568Z,11.03
2019-01-29T13:49:11.158Z,10.80
2019-01-29T13:51:38.919Z,10.37
2019-01-29T13:54:06.406Z,10.90
2019-01-29T13:56:38.792Z,10.60
2019-01-29T13:59:03.443Z,11.50
2019-01-29T14:01:31.163Z,10.67
2019-01-29T14:04:05.986Z,11.27
2019-01-29T14:06:28.515Z,9.20
2019-01-29T14:08:56.087Z,9.07
2019-01-29T14:11:23.721Z,10.60
2019-01-29T14:13:51.375Z,9.27
2019-01-29T14:16:18.959Z,10.40
2019-01-29T14:18:46.675Z,8.50
2019-01-29T14:21:14.290Z,10.10
2019-01-29T14:23:41.871Z,10.00
2019-01-29T14:26:09.352Z,9.57
2019-01-29T14:28:36.906Z,9.00
2019-01-29T14:31:04.629Z,9.30
2019-01-29T14:33:31.946Z,10.30
2019-01-29T14:35:59.604Z,9.40
2019-01-29T14:38:59.610Z,10.27
2019-01-29T14:41:27.095Z,10.20
2019-01-29T14:43:59.069Z,10.67
2019-01-29T14:46:26.936Z,10.57
2019-01-29T14:48:54.542Z,11.53
2019-01-29T14:51:22.166Z,12.80
2019-01-29T14:53:49.916Z,11.07
2019-01-29T14:56:17.523Z,11.30
2019-01-29T14:59:04.791Z,11.67
2019-01-29T15:01:32.344Z,11.13
2019-01-29T15:03:59.962Z,11.87
2019-01-29T15:06:32.645Z,12.57
2019-01-29T15:08:57.122Z,11.97
2019-01-29T15:11:24.767Z,12.33
2019-01-29T15:13:52.489Z,12.33
2019-01-29T15:16:38.261Z,12.40
2019-01-29T15:19:11.750Z,12.57
2019-01-29T15:21:39.423Z,13.90
2019-01-29T15:24:06.878Z,13.07
2019-01-29T15:26:34.427Z,13.90
2019-01-29T15:29:02.370Z,12.57
2019-01-29T15:31:30.131Z,13.73
2019-01-29T15:33:59.767Z,14.80
2019-01-29T15:36:27.630Z,13.73
2019-01-29T15:38:55.322Z,14.23
2019-01-29T15:41:22.909Z,13.80
2019-01-29T15:43:50.408Z,14.63
2019-01-29T15:46:18.270Z,15.60
2019-01-29T15:48:46.693Z,15.30
2019-01-29T15:51:14.375Z,15.50
2019-01-29T15:53:41.887Z,15.00
2019-01-29T15:56:09.302Z,15.30
2019-01-29T15:58:36.846Z,16.93
2019-01-29T16:01:04.653Z,16.73
2019-01-29T16:03:32.237Z,15.77
2019-01-29T16:06:00.076Z,16.00
2019-01-29T16:08:27.583Z,15.90
2019-01-29T16:10:55.334Z,18.57
2019-01-29T16:13:22.874Z,17.70
2019-01-29T16:15:50.538Z,16.10
2019-01-29T16:18:18.010Z,16.93
2019-01-29T16:20:45.497Z,15.87
2019-01-29T16:23:13.068Z,15.87
2019-01-29T16:25:40.744Z,15.70
2019-01-29T16:28:08.461Z,15.47
2019-01-29T16:30:36.100Z,17.20
2019-01-29T16:33:04.384Z,16.10
2019-01-29T16:35:32.186Z,17.83
2019-01-29T16:37:59.851Z,18.30
2019-01-29T16:40:30.104Z,15.70
2019-01-29T16:42:57.938Z,16.50
2019-01-29T16:45:28.595Z,17.37
2019-01-29T16:47:56.492Z,17.43
2019-01-29T16:50:25.496Z,16.60
2019-01-29T16:52:53.494Z,15.13
2019-01-29T16:55:23.941Z,16.40
2019-01-29T16:57:51.836Z,18.60
2019-01-29T17:00:22.733Z,17.40
2019-01-29T17:02:50.628Z,15.20
2019-01-29T17:05:18.545Z,16.43
2019-01-29T17:07:46.616Z,17.00
2019-01-29T17:10:15.384Z,15.80
2019-01-29T17:12:43.959Z,15.67
2019-01-29T17:15:23.645Z,16.27
2019-01-29T17:17:51.411Z,18.17
2019-01-29T17:20:25.099Z,16.97
2019-01-29T17:22:53.047Z,18.07
2019-01-29T17:25:20.995Z,16.23
2019-01-29T17:27:48.607Z,16.67
2019-01-29T17:30:30.617Z,17.60
2019-01-29T17:32:58.120Z,19.47
2019-01-29T17:35:25.767Z,19.00
2019-01-29T17:37:53.838Z,19.07
2019-01-29T17:40:22.173Z,18.53
2019-01-29T17:43:10.182Z,17.67
2019-01-29T17:45:39.948Z,18.50
2019-01-29T17:48:08.511Z,19.53
2019-01-29T17:50:38.463Z,19.40
2019-01-29T17:53:06.167Z,20.60
2019-01-29T17:55:36.611Z,18.23
2019-01-29T17:58:04.998Z,20.37
2019-01-29T18:00:34.624Z,20.33
2019-01-29T18:03:02.830Z,21.00
2019-01-29T18:05:30.883Z,19.07
2019-01-29T18:07:58.667Z,20.20
2019-01-29T18:10:26.360Z,20.90
2019-01-29T18:12:54.671Z,20.80
2019-01-29T18:15:28.024Z,21.50
2019-01-29T18:17:55.923Z,21.37
2019-01-29T18:20:23.618Z,21.20
2019-01-29T18:22:51.453Z,21.73
2019-01-29T18:25:19.359Z,20.50
2019-01-29T18:27:47.192Z,22.90
2019-01-29T18:30:20.821Z,19.47
2019-01-29T18:32:48.603Z,21.73
2019-01-29T18:35:16.313Z,22.23
2019-01-29T18:37:45.681Z,22.27
2019-01-29T18:40:16.008Z,21.20
2019-01-29T18:42:45.858Z,26.37
2019-01-29T18:45:13.695Z,23.83
2019-01-29T18:47:41.449Z,21.73
2019-01-29T18:50:11.355Z,21.57
2019-01-29T18:52:39.006Z,21.87
2019-01-29T18:55:07.442Z,21.90
2019-01-29T18:57:35.677Z,24.20
2019-01-29T19:00:04.933Z,23.13
2019-01-29T19:02:34.319Z,22.77
2019-01-29T19:05:01.907Z,22.43
2019-01-29T19:07:29.509Z,23.40
2019-01-29T19:09:57.443Z,24.20
2019-01-29T19:12:25.230Z,22.67
2019-01-29T19:14:52.953Z,27.33
2019-01-29T19:17:20.646Z,24.20
2019-01-29T19:19:48.231Z,24.23
2019-01-29T19:22:16.289Z,21.83
2019-01-29T19:24:43.864Z,23.30
2019-01-29T19:27:11.402Z,23.40
2019-01-29T19:29:39.244Z,24.70
2019-01-29T19:32:07.125Z,24.40
2019-01-29T19:34:35.279Z,24.23
2019-01-29T19:37:03.167Z,24.17
2019-01-29T19:39:32.206Z,26.43
2019-01-29T19:41:59.840Z,25.57
2019-01-29T19:44:27.716Z,26.17
2019-01-29T19:46:55.590Z,25.60
2019-01-29T19:49:23.604Z,22.60
2019-01-29T19:51:51.753Z,23.97
2019-01-29T19:54:19.770Z,24.70
2019-01-29T19:56:47.290Z,25.40
2019-01-29T19:59:15.097Z,21.63
2019-01-29T20:01:42.745Z,22.13
2019-01-29T20:04:10.462Z,22.00
2019-01-29T20:06:38.465Z,24.60
2019-01-29T20:09:11.010Z,24.43
2019-01-29T20:11:39.863Z,21.33
2019-01-29T20:14:07.448Z,24.00
2019-01-29T20:16:35.167Z,22.40
2019-01-29T20:19:02.861Z,22.50
2019-01-29T20:21:31.837Z,22.70
2019-01-29T20:23:59.601Z,22.03
2019-01-29T20:26:27.256Z,20.70
2019-01-29T20:28:55.262Z,22.03
2019-01-29T20:31:22.937Z,22.53
2019-01-29T20:33:50.953Z,21.10
2019-01-29T20:36:18.571Z,21.33
2019-01-29T20:38:46.344Z,23.33
2019-01-29T20:41:14.110Z,21.57
2019-01-29T20:43:41.788Z,21.17
2019-01-29T20:46:09.453Z,22.57
2019-01-29T20:48:40.191Z,21.10
2019-01-29T20:51:08.092Z,19.87
2019-01-29T20:53:35.787Z,20.37
2019-01-29T20:56:03.254Z,19.83
2019-01-29T20:58:30.862Z,19.93
2019-01-29T21:00:58.661Z,20.80
2019-01-29T21:03:26.269Z,21.90
2019-01-29T21:05:53.996Z,22.27
2019-01-29T21:08:21.780Z,20.93
2019-01-29T21:10:49.547Z,20.87
2019-01-29T21:13:17.498Z,21.00
2019-01-29T21:15:45.139Z,20.10
2019-01-29T21:18:13.162Z,25.10
2019-01-29T21:20:40.799Z,23.70
2019-01-29T21:23:18.792Z,20.30
2019-01-29T21:25:48.940Z,21.50
2019-01-29T21:28:16.712Z,20.07
2019-01-29T21:30:44.722Z,22.47
2019-01-29T21:33:12.424Z,22.93
2019-01-29T21:35:40.011Z,20.97
2019-01-29T21:38:07.785Z,20.73
2019-01-29T21:40:35.390Z,21.97
2019-01-29T21:43:02.903Z,18.10
2019-01-29T21:45:31.537Z,19.07
2019-01-29T21:48:00.632Z,20.07
2019-01-29T21:50:29.505Z,19.20
2019-01-29T21:52:57.610Z,19.73
2019-01-29T21:55:25.394Z,20.63
2019-01-29T21:57:52.939Z,22.03
2019-01-29T22:00:43.931Z,20.57
2019-01-29T22:03:11.961Z,19.23
2019-01-29T22:05:39.386Z,20.37
2019-01-29T22:08:08.310Z,19.60
2019-01-29T22:10:35.881Z,19.63
2019-01-29T22:13:04.858Z,20.27
2019-01-29T22:15:32.604Z,20.70
2019-01-29T22:18:00.186Z,20.33
2019-01-29T22:20:27.952Z,19.53
2019-01-29T22:22:55.441Z,19.70
2019-01-29T22:25:23.230Z,20.97
2019-01-29T22:27:50.753Z,19.43
2019-01-29T22:30:20.965Z,19.20
2019-01-29T22:32:48.526Z,20.47
2019-01-29T22:35:15.968Z,20.03
2019-01-29T22:37:43.502Z,18.17
2019-01-29T22:40:14.253Z,19.10
2019-01-29T22:42:41.800Z,18.10
2019-01-29T22:45:10.418Z,18.53
2019-01-29T22:47:37.994Z,17.90
2019-01-29T22:50:09.410Z,19.77
2019-01-29T22:52:36.952Z,19.07
2019-01-29T22:55:04.977Z,19.73
2019-01-29T22:57:32.519Z,18.93
2019-01-29T23:00:00.088Z,18.17
2019-01-29T23:02:27.764Z,17.73
2019-01-29T23:04:55.493Z,16.37
2019-01-29T23:07:29.494Z,18.70
2019-01-29T23:09:57.113Z,17.70
2019-01-29T23:12:24.592Z,17.27
2019-01-29T23:14:52.192Z,15.93
2019-01-29T23:17:19.831Z,16.70
2019-01-29T23:19:48.738Z,17.17
2019-01-29T23:22:16.434Z,18.43
2019-01-29T23:24:44.091Z,18.40
2019-01-29T23:27:11.756Z,17.17
2019-01-29T23:29:43.690Z,18.03
2019-01-29T23:32:08.651Z,17.47
2019-01-29T23:34:36.342Z,15.73
2019-01-29T23:37:04.447Z,16.27
2019-01-29T23:39:31.970Z,16.80
2019-01-29T23:41:59.625Z,15.53
2019-01-29T23:44:27.149Z,16.13
2019-01-29T23:46:54.626Z,14.37
2019-01-29T23:49:22.271Z,17.07
2019-01-29T23:51:49.813Z,13.93
2019-01-29T23:54:17.391Z,16.73
2019-01-29T23:56:45.139Z,15.10
2019-01-29T23:59:12.901Z,14.90
